EDI weather

Edinburgh Airport
Edinburgh, Scotland, United Kingdom

Public forecast

Using degrees Celsius for public forecast. Weather courtesy of forecast.io.

Current aviation weather report (METAR) for Edinburgh Airport

Retrieved 2020/04/07 16:20 UTC (2 minutes ago):

EGPH 071620Z 21015KT CAVOK 14/02 Q1024

Aviation forecast (TAF) for Edinburgh Airport

Retrieved 2020/04/07 12:00 UTC (4 hours ago):

TAF EGPH 071058Z 0712/0812 21012KT 9999 FEW030 PROB40 TEMPO 0712/0721 22015G25KT